Time;durP1;ratioP1;P1;durP2;ratioP2;P2;SDS_P1;SDS_P2;PMS_P1;PMS_P2;Temp;Humidity;BMP_temperature;BMP_pressure;BME280_temperature;BME280_humidity;BME280_pressure;Samples;Min_cycle;Max_cycle;Signal;HPM_P1;HPM_P2
2023/08/19 00:01:43;;;;;;;1.20;1.20;;;;;;;24.77;65.91;97523.56;4996604;28;20205;-27
2023/08/19 00:04:10;;;;;;;1.30;1.20;;;;;;;24.77;66.04;97526.13;4994763;28;20226;-28
2023/08/19 00:06:41;;;;;;;1.40;1.30;;;;;;;24.78;65.69;97527.88;4995969;28;20202;-27
2023/08/19 00:09:08;;;;;;;1.33;1.23;;;;;;;24.77;66.21;97537.28;4992416;28;20198;-27
2023/08/19 00:11:36;;;;;;;1.20;1.20;;;;;;;24.75;65.93;97526.09;5000141;28;20203;-27
2023/08/19 00:14:03;;;;;;;1.27;1.23;;;;;;;24.79;66.11;97527.03;4996301;28;20265;-27
2023/08/19 00:16:30;;;;;;;1.10;1.10;;;;;;;24.75;66.02;97520.13;4995283;28;20195;-27
2023/08/19 00:18:56;;;;;;;1.40;1.30;;;;;;;24.77;66.27;97527.00;4995475;28;20254;-32
2023/08/19 00:21:23;;;;;;;1.50;1.40;;;;;;;24.75;66.39;97520.13;4996033;28;20650;-29
2023/08/19 00:23:50;;;;;;;1.37;1.30;;;;;;;24.73;65.97;97514.09;4995095;28;20241;-27
2023/08/19 00:26:17;;;;;;;1.17;1.17;;;;;;;24.77;65.89;97521.00;4992507;28;20265;-27
2023/08/19 00:28:43;;;;;;;1.33;1.23;;;;;;;24.76;65.83;97522.72;4995927;28;20253;-27
2023/08/19 00:31:10;;;;;;;1.50;1.40;;;;;;;24.77;65.83;97526.13;4995779;28;20254;-27
2023/08/19 00:33:36;;;;;;;1.47;1.37;;;;;;;24.77;65.97;97536.41;4996031;28;20199;-27
2023/08/19 00:36:03;;;;;;;1.77;1.30;;;;;;;24.78;65.96;97530.47;4990886;28;20235;-27
2023/08/19 00:38:30;;;;;;;1.40;1.30;;;;;;;24.78;65.82;97522.75;4995294;28;20234;-29
2023/08/19 00:40:56;;;;;;;1.20;1.20;;;;;;;24.79;65.70;97527.03;4993123;28;20239;-27
2023/08/19 00:43:23;;;;;;;1.27;1.23;;;;;;;24.77;65.77;97527.00;4995898;28;20289;-27
2023/08/19 00:45:49;;;;;;;1.40;1.30;;;;;;;24.77;66.08;97521.88;4995638;28;20334;-27
2023/08/19 00:48:17;;;;;;;1.30;1.30;;;;;;;24.77;66.22;97521.00;4995580;28;20214;-27
2023/08/19 00:50:44;;;;;;;1.10;1.10;;;;;;;24.76;66.00;97519.28;4993964;28;20207;-32
2023/08/19 00:53:10;;;;;;;1.10;1.10;;;;;;;24.78;66.14;97528.72;4960496;28;20230;-28
2023/08/19 00:55:37;;;;;;;1.13;1.13;;;;;;;24.77;66.23;97526.13;4992864;28;20261;-28
2023/08/19 00:58:03;;;;;;;1.23;1.23;;;;;;;24.76;66.21;97524.41;4994728;28;20207;-27
2023/08/19 01:00:30;;;;;;;1.20;1.20;;;;;;;24.77;65.74;97528.72;4988286;28;20249;-27
2023/08/19 01:02:57;;;;;;;1.50;1.40;;;;;;;24.78;65.97;97530.47;4988518;28;20289;-32
2023/08/19 01:05:37;;;;;;;1.40;1.30;;;;;;;24.77;66.00;97523.56;4999485;28;20639;-28
2023/08/19 01:08:04;;;;;;;1.20;1.20;;;;;;;24.76;65.93;97524.41;4985848;28;20715;-27
2023/08/19 01:10:45;;;;;;;1.20;1.20;;;;;;;24.77;65.86;97521.00;4999499;28;20199;-34
2023/08/19 01:13:12;;;;;;;1.30;1.20;;;;;;;24.77;65.82;97518.44;4977653;28;20257;-27
2023/08/19 01:15:53;;;;;;;1.27;1.20;;;;;;;24.77;66.04;97506.44;4994217;28;20636;-27
2023/08/19 01:18:21;;;;;;;1.40;1.30;;;;;;;24.76;65.65;97501.28;4985035;28;20198;-28
2023/08/19 01:20:48;;;;;;;1.30;1.20;;;;;;;24.76;65.80;97494.44;4997814;28;20238;-27
2023/08/19 01:23:23;;;;;;;1.33;1.27;;;;;;;24.77;65.92;97496.16;4977345;28;20198;-27
2023/08/19 01:25:50;;;;;;;1.20;1.20;;;;;;;24.73;66.10;97486.69;4977975;28;20638;-27
2023/08/19 01:28:19;;;;;;;1.40;1.30;;;;;;;24.78;65.98;97497.03;4993917;28;20195;-28
2023/08/19 01:30:46;;;;;;;1.30;1.30;;;;;;;24.77;65.89;97492.72;4992870;28;20199;-27
2023/08/19 01:33:12;;;;;;;1.20;1.20;;;;;;;24.74;66.01;97484.97;4994388;28;20286;-27
2023/08/19 01:35:43;;;;;;;1.40;1.30;;;;;;;24.74;65.97;97484.97;4976141;28;20755;-27
2023/08/19 01:38:12;;;;;;;1.17;1.17;;;;;;;24.77;66.22;97485.88;4985096;28;20199;-27
2023/08/19 01:40:38;;;;;;;1.40;1.30;;;;;;;24.76;65.98;97489.31;4993034;28;20203;-27
2023/08/19 01:43:05;;;;;;;1.20;1.20;;;;;;;24.78;65.72;97491.91;4976615;28;20635;-27
2023/08/19 01:45:32;;;;;;;1.40;1.30;;;;;;;24.75;66.01;97505.53;4976898;28;20273;-27
2023/08/19 01:47:58;;;;;;;1.40;1.30;;;;;;;24.76;66.05;97491.88;4992282;28;20204;-27
2023/08/19 01:50:25;;;;;;;1.40;1.30;;;;;;;24.77;65.75;97495.28;4993398;28;20203;-27
2023/08/19 01:52:52;;;;;;;1.20;1.20;;;;;;;24.78;65.76;97494.47;4994205;28;20210;-30
2023/08/19 01:55:18;;;;;;;1.43;1.33;;;;;;;24.77;65.69;97490.16;4993982;28;20269;-27
2023/08/19 01:57:45;;;;;;;1.10;1.10;;;;;;;24.76;65.71;97489.31;4993522;28;20692;-28
2023/08/19 02:00:12;;;;;;;1.40;1.30;;;;;;;24.77;66.08;97496.16;4985452;28;20203;-27
2023/08/19 02:02:38;;;;;;;1.20;1.20;;;;;;;24.77;66.00;97498.72;4991141;28;20207;-27
2023/08/19 02:05:05;;;;;;;1.20;1.20;;;;;;;24.77;65.90;97508.13;4993420;28;20223;-27
2023/08/19 02:07:32;;;;;;;1.20;1.20;;;;;;;24.77;65.81;97500.44;4994062;28;20205;-27
2023/08/19 02:09:59;;;;;;;1.30;1.30;;;;;;;24.75;66.02;97507.28;4993997;28;20347;-27
2023/08/19 02:12:25;;;;;;;1.20;1.20;;;;;;;24.73;65.96;97493.53;4993514;28;20643;-27
2023/08/19 02:14:52;;;;;;;1.27;1.17;;;;;;;24.76;65.90;97497.00;4993281;28;20254;-27
2023/08/19 02:17:18;;;;;;;1.27;1.27;;;;;;;24.78;65.91;97497.03;4993404;28;20293;-27
2023/08/19 02:19:45;;;;;;;1.13;1.13;;;;;;;24.77;65.96;97493.59;4993386;28;20210;-27
2023/08/19 02:22:12;;;;;;;1.40;1.30;;;;;;;24.76;66.26;97499.59;4992933;28;20210;-27
2023/08/19 02:24:38;;;;;;;1.40;1.30;;;;;;;24.77;66.14;97492.72;4993080;28;20273;-27
2023/08/19 02:27:05;;;;;;;1.37;1.30;;;;;;;24.72;66.30;97487.50;4993528;28;20576;-28
2023/08/19 02:29:31;;;;;;;1.33;1.23;;;;;;;24.77;66.05;97495.28;4993192;28;20678;-27
2023/08/19 02:31:58;;;;;;;1.37;1.27;;;;;;;24.76;65.76;97498.72;4991756;28;20624;-34
2023/08/19 02:34:25;;;;;;;1.10;1.10;;;;;;;24.77;65.83;97497.84;4987306;28;20277;-27
2023/08/19 02:36:51;;;;;;;1.30;1.20;;;;;;;24.77;65.98;97495.28;4993312;28;20728;-27
2023/08/19 02:39:18;;;;;;;1.50;1.40;;;;;;;24.73;65.87;97483.25;4992440;28;20203;-27
2023/08/19 02:41:45;;;;;;;1.40;1.30;;;;;;;24.54;65.74;97446.06;4993363;28;20198;-27
2023/08/19 02:44:11;;;;;;;1.20;1.20;;;;;;;24.77;65.93;97488.44;4992519;28;20272;-27
2023/08/19 02:46:38;;;;;;;1.30;1.30;;;;;;;24.76;65.74;97491.00;4994073;28;20261;-27
2023/08/19 02:49:04;;;;;;;1.20;1.20;;;;;;;24.78;65.98;97497.88;4992695;28;20206;-27
2023/08/19 02:51:31;;;;;;;1.20;1.20;;;;;;;24.76;65.66;97484.16;4992993;28;20199;-27
2023/08/19 02:53:57;;;;;;;1.17;1.17;;;;;;;24.75;65.92;97490.13;4993040;28;20250;-27
2023/08/19 02:56:25;;;;;;;1.20;1.20;;;;;;;24.78;66.13;97494.47;4992634;28;20203;-27
2023/08/19 02:58:51;;;;;;;1.10;1.10;;;;;;;24.71;66.14;97487.47;4992283;28;20234;-28
2023/08/19 03:01:18;;;;;;;1.30;1.20;;;;;;;24.77;65.80;97501.31;4987606;28;20751;-27
2023/08/19 03:03:45;;;;;;;1.10;1.10;;;;;;;24.77;66.13;97498.72;4993077;28;20306;-27
2023/08/19 03:06:11;;;;;;;1.30;1.20;;;;;;;24.76;65.76;97499.59;4992463;28;20229;-27
2023/08/19 03:08:38;;;;;;;1.20;1.20;;;;;;;24.78;66.05;97499.63;4991421;28;20198;-28
2023/08/19 03:11:04;;;;;;;1.40;1.30;;;;;;;24.77;65.97;97497.84;4993531;28;20242;-27
2023/08/19 03:13:31;;;;;;;1.23;1.20;;;;;;;24.78;65.82;97499.63;4991991;28;20218;-28
2023/08/19 03:15:59;;;;;;;1.20;1.20;;;;;;;24.78;65.71;97497.03;4992177;28;20227;-27
2023/08/19 03:18:26;;;;;;;1.10;1.10;;;;;;;24.77;66.17;97497.84;4992309;28;20207;-27
2023/08/19 03:20:57;;;;;;;1.30;1.20;;;;;;;24.76;66.14;97491.88;4992443;28;20284;-27
2023/08/19 03:23:25;;;;;;;1.30;1.30;;;;;;;24.78;66.28;97495.31;4987555;28;20223;-27
2023/08/19 03:25:52;;;;;;;1.20;1.20;;;;;;;24.78;65.90;97494.47;4992363;28;20227;-28
2023/08/19 03:28:18;;;;;;;1.20;1.20;;;;;;;24.78;65.95;97504.75;4992208;28;20242;-28
2023/08/19 03:30:45;;;;;;;1.50;1.40;;;;;;;24.78;65.74;97507.31;4990819;28;20677;-28
2023/08/19 03:33:11;;;;;;;1.40;1.30;;;;;;;24.79;66.28;97506.47;4992189;28;20234;-27
2023/08/19 03:35:38;;;;;;;1.40;1.30;;;;;;;24.77;65.94;97510.72;4991463;28;20293;-27
2023/08/19 03:38:05;;;;;;;1.20;1.20;;;;;;;24.79;66.14;97515.06;4989706;28;20257;-27
2023/08/19 03:40:31;;;;;;;1.20;1.20;;;;;;;24.78;66.24;97509.91;4992565;28;20286;-27
2023/08/19 03:42:58;;;;;;;1.20;1.20;;;;;;;24.80;66.09;97514.22;4992193;28;20206;-27
2023/08/19 03:45:24;;;;;;;1.23;1.23;;;;;;;24.79;65.87;97512.50;4991754;28;20255;-27
2023/08/19 03:47:51;;;;;;;1.23;1.23;;;;;;;24.78;65.96;97510.75;4991649;28;20290;-27
2023/08/19 03:50:18;;;;;;;1.03;1.03;;;;;;;24.77;66.33;97508.13;4992569;28;20203;-27
2023/08/19 03:52:44;;;;;;;1.10;1.10;;;;;;;24.78;65.80;97518.44;4991497;28;20203;-27
2023/08/19 03:55:11;;;;;;;1.10;1.10;;;;;;;24.78;65.82;97523.59;4992078;28;20242;-27
2023/08/19 03:57:37;;;;;;;1.40;1.30;;;;;;;24.78;66.03;97522.75;4991571;28;20523;-30
2023/08/19 04:00:05;;;;;;;1.20;1.20;;;;;;;24.77;66.01;97519.31;4991067;28;20261;-27
2023/08/19 04:02:31;;;;;;;1.20;1.20;;;;;;;24.74;66.02;97506.41;4989255;28;20249;-27
2023/08/19 04:04:59;;;;;;;1.30;1.20;;;;;;;24.77;66.13;97503.88;4991666;28;20227;-27
2023/08/19 04:07:26;;;;;;;1.10;1.10;;;;;;;24.77;65.91;97506.44;4991557;28;20631;-27
2023/08/19 04:09:54;;;;;;;1.13;1.13;;;;;;;24.75;65.96;97508.13;4993813;28;20717;-28
2023/08/19 04:12:22;;;;;;;1.10;1.10;;;;;;;24.78;65.66;97525.31;4989598;28;20250;-27
2023/08/19 04:14:48;;;;;;;1.20;1.20;;;;;;;24.78;65.98;97530.47;4990410;28;20218;-30
2023/08/19 04:17:16;;;;;;;1.50;1.40;;;;;;;24.77;66.10;97536.41;4991975;28;20245;-27
2023/08/19 04:19:43;;;;;;;1.20;1.20;;;;;;;24.77;66.07;97532.16;4991406;28;20688;-27
2023/08/19 04:22:13;;;;;;;1.10;1.10;;;;;;;24.78;65.99;97533.88;4990005;28;20195;-27
2023/08/19 04:24:40;;;;;;;1.40;1.30;;;;;;;24.76;66.29;97538.16;4992021;28;20705;-27
2023/08/19 04:27:06;;;;;;;1.23;1.23;;;;;;;24.76;65.82;97535.56;4991486;28;20713;-27
2023/08/19 04:29:33;;;;;;;1.40;1.30;;;;;;;24.76;66.20;97540.72;4991369;28;20226;-27
2023/08/19 04:32:03;;;;;;;1.30;1.20;;;;;;;24.76;66.16;97534.69;4991609;28;20207;-27
2023/08/19 04:34:30;;;;;;;1.20;1.20;;;;;;;24.77;66.17;97544.13;4989929;28;20219;-28
2023/08/19 04:36:56;;;;;;;1.20;1.20;;;;;;;24.78;65.83;97551.03;4990994;28;20215;-27
2023/08/19 04:39:23;;;;;;;1.50;1.40;;;;;;;24.77;65.80;97554.41;4990586;28;20207;-27
2023/08/19 04:41:50;;;;;;;1.20;1.20;;;;;;;24.76;65.89;97548.44;4991688;28;20199;-30
2023/08/19 04:44:17;;;;;;;1.20;1.20;;;;;;;24.76;65.86;97545.84;4989791;28;20254;-29
2023/08/19 04:46:43;;;;;;;1.50;1.40;;;;;;;24.76;66.17;97545.84;4994889;28;20697;-27
2023/08/19 04:49:10;;;;;;;1.10;1.10;;;;;;;24.78;65.92;97558.72;4995389;28;20203;-33
2023/08/19 04:51:36;;;;;;;1.10;1.10;;;;;;;24.74;66.16;97544.94;4995694;28;20218;-29
2023/08/19 04:54:03;;;;;;;1.30;1.30;;;;;;;24.71;65.97;97551.72;4995685;28;20281;-28
2023/08/19 04:56:30;;;;;;;1.37;1.30;;;;;;;24.74;65.78;97554.34;4992621;28;20290;-27
2023/08/19 04:59:00;;;;;;;1.07;1.07;;;;;;;24.75;65.96;97558.69;4994430;28;20217;-27
2023/08/19 05:01:27;;;;;;;1.43;1.33;;;;;;;24.71;66.00;97554.31;4992659;28;20195;-27
2023/08/19 05:03:54;;;;;;;1.20;1.20;;;;;;;24.72;65.82;97554.31;4994677;28;20227;-27
2023/08/19 05:06:21;;;;;;;1.20;1.20;;;;;;;24.74;66.19;97557.81;4992232;28;20224;-27
2023/08/19 05:08:47;;;;;;;1.20;1.20;;;;;;;24.74;66.13;97560.38;4994405;28;20199;-27
2023/08/19 05:11:14;;;;;;;1.20;1.13;;;;;;;24.75;65.86;97567.22;4994727;28;20231;-27
2023/08/19 05:13:42;;;;;;;1.23;1.20;;;;;;;24.75;66.18;97563.81;4994501;28;20203;-27
2023/08/19 05:16:09;;;;;;;1.40;1.30;;;;;;;24.75;65.85;97568.97;4993571;28;20195;-27
2023/08/19 05:18:39;;;;;;;1.20;1.20;;;;;;;24.75;65.72;97571.53;4994054;28;20628;-30
2023/08/19 05:21:05;;;;;;;1.20;1.20;;;;;;;24.74;65.95;97568.09;4992876;28;20579;-27
2023/08/19 05:23:32;;;;;;;1.40;1.30;;;;;;;24.73;65.97;97568.06;4989878;28;20234;-27
2023/08/19 05:25:59;;;;;;;1.20;1.10;;;;;;;24.75;65.75;97574.09;4994546;28;20308;-27
2023/08/19 05:28:25;;;;;;;1.20;1.20;;;;;;;24.75;65.72;97576.66;4994482;28;20562;-33
2023/08/19 05:30:52;;;;;;;1.17;1.17;;;;;;;24.75;66.08;97580.09;4994504;28;20211;-27
2023/08/19 05:33:19;;;;;;;1.30;1.30;;;;;;;24.76;65.99;97588.69;4994390;28;20207;-27
2023/08/19 05:35:45;;;;;;;1.33;1.33;;;;;;;24.73;66.10;97580.91;4994048;28;20226;-27
2023/08/19 05:38:12;;;;;;;1.20;1.20;;;;;;;24.74;65.93;97586.06;4994353;28;20257;-27
2023/08/19 05:40:38;;;;;;;1.30;1.20;;;;;;;24.75;65.69;97587.81;4987240;28;20306;-27
2023/08/19 05:43:05;;;;;;;1.20;1.20;;;;;;;24.74;65.78;97583.50;4991970;28;20242;-27
2023/08/19 05:45:34;;;;;;;1.10;1.10;;;;;;;24.76;65.82;97598.97;4987445;28;20305;-31
2023/08/19 05:48:01;;;;;;;1.47;1.37;;;;;;;24.73;65.81;97593.75;4991933;28;20706;-27
2023/08/19 05:50:28;;;;;;;1.50;1.40;;;;;;;24.76;65.73;97602.41;4992955;28;20210;-27
2023/08/19 05:52:54;;;;;;;1.33;1.33;;;;;;;24.76;65.82;97602.41;4990393;28;20673;-31
2023/08/19 05:55:21;;;;;;;1.20;1.10;;;;;;;24.73;65.71;97592.06;4991367;28;20305;-36
2023/08/19 05:57:47;;;;;;;1.17;1.13;;;;;;;24.76;65.72;97610.13;4996613;28;21037;-28
2023/08/19 06:00:14;;;;;;;1.10;1.10;;;;;;;24.77;65.74;97616.09;4994345;28;20313;-27
2023/08/19 06:02:41;;;;;;;1.43;1.33;;;;;;;24.76;65.77;97615.25;4992545;28;20211;-27
2023/08/19 06:05:08;;;;;;;1.30;1.30;;;;;;;24.77;65.96;97618.66;4988295;28;20230;-27
2023/08/19 06:07:37;;;;;;;1.20;1.20;;;;;;;24.76;66.01;97609.25;4990053;28;20241;-27
2023/08/19 06:10:03;;;;;;;1.57;1.47;;;;;;;24.76;66.02;97622.09;4989501;28;20677;-27
2023/08/19 06:12:30;;;;;;;1.20;1.20;;;;;;;24.77;65.68;97621.25;4992624;28;20230;-27
2023/08/19 06:14:57;;;;;;;1.27;1.27;;;;;;;24.75;66.02;97623.78;4995231;28;20800;-38
2023/08/19 06:17:23;;;;;;;1.50;1.40;;;;;;;24.76;66.11;97624.66;4994141;28;20669;-29
2023/08/19 06:19:50;;;;;;;1.50;1.40;;;;;;;24.77;65.86;97631.53;4994739;28;20206;-27
2023/08/19 06:22:16;;;;;;;1.30;1.30;;;;;;;24.74;65.92;97619.50;4993229;28;20240;-27
2023/08/19 06:24:43;;;;;;;1.50;1.40;;;;;;;24.76;66.07;97630.69;4989315;28;20223;-27
2023/08/19 06:27:09;;;;;;;1.27;1.27;;;;;;;24.75;65.54;97631.50;4989394;28;20309;-27
2023/08/19 06:29:36;;;;;;;1.30;1.30;;;;;;;24.75;66.06;97628.09;4992280;28;20311;-29
2023/08/19 06:32:03;;;;;;;1.20;1.20;;;;;;;24.77;65.55;97632.41;4993367;28;20629;-27
2023/08/19 06:34:30;;;;;;;1.33;1.27;;;;;;;24.75;65.88;97626.34;4993987;28;20235;-32
2023/08/19 06:36:57;;;;;;;1.30;1.30;;;;;;;24.77;65.90;97629.84;4994351;28;20230;-35
2023/08/19 06:39:26;;;;;;;1.40;1.30;;;;;;;24.77;65.96;97634.97;4993820;28;20214;-27
2023/08/19 06:42:11;;;;;;;1.50;1.40;;;;;;;24.76;65.69;97638.38;4994619;28;20246;-28
2023/08/19 06:44:38;;;;;;;1.47;1.37;;;;;;;24.76;65.71;97634.94;4990675;28;20300;-27
2023/08/19 06:47:04;;;;;;;1.40;1.37;;;;;;;24.77;65.99;97640.13;4988018;28;20259;-27
2023/08/19 06:49:31;;;;;;;1.60;1.50;;;;;;;24.77;65.82;97639.22;4989332;28;20289;-27
2023/08/19 06:51:59;;;;;;;1.60;1.50;;;;;;;24.76;65.72;97640.97;4994322;28;20761;-27
2023/08/19 06:54:25;;;;;;;1.67;1.50;;;;;;;24.76;66.15;97638.38;4992673;28;20288;-27
2023/08/19 06:57:28;;;;;;;1.70;1.60;;;;;;;24.76;65.84;97640.97;4992898;28;20215;-27
2023/08/19 07:00:01;;;;;;;1.70;1.60;;;;;;;24.77;65.82;97647.81;4992247;28;20219;-28
2023/08/19 07:02:28;;;;;;;1.70;1.60;;;;;;;24.77;66.05;97652.97;4988967;28;20574;-27
2023/08/19 07:04:59;;;;;;;1.70;1.60;;;;;;;24.75;66.10;97654.63;4994146;28;20231;-29
2023/08/19 07:07:25;;;;;;;1.70;1.60;;;;;;;24.78;65.92;97651.28;4975217;28;20575;-28
2023/08/19 07:09:52;;;;;;;1.50;1.40;;;;;;;24.78;65.73;97658.97;4987726;28;20792;-27
2023/08/19 07:12:20;;;;;;;1.63;1.53;;;;;;;24.78;65.65;97658.97;4991391;28;20281;-27
2023/08/19 07:14:46;;;;;;;1.70;1.60;;;;;;;24.75;66.19;97651.22;4991359;28;20288;-30
2023/08/19 07:17:14;;;;;;;1.60;1.50;;;;;;;24.74;66.11;97660.63;4989358;28;21112;-28
2023/08/19 07:19:40;;;;;;;1.50;1.40;;;;;;;24.75;66.17;97658.94;4972059;28;20210;-29
2023/08/19 07:22:07;;;;;;;1.67;1.57;;;;;;;24.73;65.91;97658.91;4992960;28;20219;-27
2023/08/19 07:24:34;;;;;;;1.60;1.50;;;;;;;24.77;66.09;97655.53;4975868;28;20228;-27
2023/08/19 07:27:03;;;;;;;1.67;1.57;;;;;;;24.76;65.86;97656.38;4992982;28;20655;-27
2023/08/19 07:29:30;;;;;;;1.80;1.70;;;;;;;24.77;65.63;97658.09;4988830;28;20230;-34
2023/08/19 07:31:57;;;;;;;1.60;1.50;;;;;;;24.78;65.60;97658.97;4991766;28;20579;-28
2023/08/19 07:34:23;;;;;;;1.83;1.73;;;;;;;24.77;65.56;97654.66;4988962;28;20249;-27
2023/08/19 07:36:50;;;;;;;1.60;1.50;;;;;;;24.78;66.04;97656.41;4988681;28;20211;-27
2023/08/19 07:39:17;;;;;;;1.70;1.60;;;;;;;24.78;65.72;97662.41;5002685;28;20211;-27
2023/08/19 07:41:44;;;;;;;1.80;1.70;;;;;;;24.78;65.76;97661.56;4986520;28;20206;-27
2023/08/19 07:44:10;;;;;;;1.80;1.70;;;;;;;24.59;65.77;97632.03;4985457;28;20408;-28
2023/08/19 07:46:37;;;;;;;1.80;1.70;;;;;;;24.77;65.76;97658.09;4988300;28;20277;-27
2023/08/19 07:49:03;;;;;;;1.57;1.47;;;;;;;24.78;65.91;97661.56;4987097;28;20670;-31
2023/08/19 07:51:30;;;;;;;1.73;1.63;;;;;;;24.78;66.21;97659.81;4990209;28;20233;-27
2023/08/19 07:53:57;;;;;;;1.80;1.70;;;;;;;24.78;66.20;97666.69;4988549;28;20609;-27
2023/08/19 07:56:23;;;;;;;2.93;2.10;;;;;;;24.77;65.93;97665.81;4992234;28;20195;-27
2023/08/19 07:58:50;;;;;;;2.30;2.20;;;;;;;24.74;66.31;97664.88;4991241;28;20202;-27
2023/08/19 08:01:17;;;;;;;2.37;2.17;;;;;;;24.72;66.30;97662.28;4991775;28;20269;-27
2023/08/19 08:03:44;;;;;;;2.20;2.10;;;;;;;24.75;66.38;97674.34;4991064;28;20732;-28
2023/08/19 08:06:11;;;;;;;2.67;2.30;;;;;;;24.76;66.07;97678.63;4991119;28;20229;-27
2023/08/19 08:08:38;;;;;;;2.37;2.20;;;;;;;24.76;66.25;97681.22;4990615;28;20210;-28
2023/08/19 08:11:05;;;;;;;2.20;2.10;;;;;;;24.75;65.67;97677.75;4996870;28;20203;-27
2023/08/19 08:13:32;;;;;;;4.13;2.10;;;;;;;24.75;65.62;97682.91;4991189;28;20199;-27
2023/08/19 08:15:58;;;;;;;2.23;2.03;;;;;;;24.76;65.89;97670.94;4988129;28;20207;-28
2023/08/19 08:18:25;;;;;;;2.23;2.03;;;;;;;24.76;65.74;97676.06;4991810;28;20290;-27
2023/08/19 08:20:52;;;;;;;2.20;2.10;;;;;;;24.73;66.13;97674.31;4997637;28;20249;-27
2023/08/19 08:23:18;;;;;;;4.33;2.00;;;;;;;24.75;66.04;97676.91;4995697;28;20225;-28
2023/08/19 08:25:45;;;;;;;2.00;1.90;;;;;;;24.75;66.00;97682.06;4999122;28;20230;-27
2023/08/19 08:28:12;;;;;;;2.43;2.23;;;;;;;24.74;65.93;97682.88;4990088;28;20226;-27
2023/08/19 08:30:38;;;;;;;2.10;1.90;;;;;;;24.71;65.88;97667.41;5013020;28;20253;-32
2023/08/19 08:33:05;;;;;;;2.00;1.90;;;;;;;24.75;65.47;97682.91;4994844;28;20233;-27
2023/08/19 08:35:32;;;;;;;2.20;2.00;;;;;;;24.71;65.94;97668.28;4994388;28;20258;-27
2023/08/19 08:37:59;;;;;;;1.90;1.80;;;;;;;24.74;65.58;97675.16;4995410;28;20594;-27
2023/08/19 08:40:25;;;;;;;2.30;2.10;;;;;;;24.74;65.43;97676.03;4995097;28;20238;-27
2023/08/19 08:42:52;;;;;;;2.07;1.90;;;;;;;24.75;65.52;97674.34;4993963;28;20302;-27
2023/08/19 08:45:19;;;;;;;2.00;1.90;;;;;;;24.75;65.46;97677.75;4999444;28;20625;-27
2023/08/19 08:47:45;;;;;;;1.80;1.70;;;;;;;24.73;65.93;97666.63;4975994;28;20398;-27
2023/08/19 08:50:12;;;;;;;1.90;1.80;;;;;;;24.74;65.89;97660.63;4985351;28;20629;-27
2023/08/19 08:52:40;;;;;;;2.07;1.80;;;;;;;24.76;65.61;97665.78;4993717;28;20261;-27
2023/08/19 08:55:07;;;;;;;1.90;1.80;;;;;;;24.72;65.82;97662.28;4977304;28;20249;-28
2023/08/19 08:57:33;;;;;;;1.77;1.67;;;;;;;24.75;65.74;97664.06;4994145;28;20241;-27
2023/08/19 09:00:00;;;;;;;1.80;1.70;;;;;;;24.77;65.74;97664.94;4992085;28;20265;-27
2023/08/19 09:02:27;;;;;;;2.00;1.90;;;;;;;24.75;65.50;97666.63;4993499;28;20329;-27
2023/08/19 09:04:53;;;;;;;2.40;2.13;;;;;;;24.75;65.75;97664.06;4978364;28;20306;-27
2023/08/19 09:07:30;;;;;;;2.23;2.03;;;;;;;24.76;65.69;97663.22;4998539;28;20227;-27
2023/08/19 09:09:57;;;;;;;2.30;2.10;;;;;;;24.74;65.56;97668.34;4997001;28;20207;-27
2023/08/19 09:12:24;;;;;;;1.90;1.80;;;;;;;24.76;65.38;97671.81;4993142;28;20199;-27
2023/08/19 09:14:54;;;;;;;2.97;2.13;;;;;;;24.78;65.91;97677.81;5005919;28;20230;-27
2023/08/19 09:17:20;;;;;;;2.00;1.90;;;;;;;24.76;66.04;97666.66;4985862;28;20207;-27
2023/08/19 09:19:47;;;;;;;2.00;1.90;;;;;;;24.79;65.43;97678.69;4992879;28;20207;-33
2023/08/19 09:22:16;;;;;;;2.70;1.87;;;;;;;24.78;65.58;97667.53;4990630;28;20196;-27
2023/08/19 09:24:43;;;;;;;1.80;1.70;;;;;;;24.74;65.76;97665.75;4993974;28;20219;-28
2023/08/19 09:27:11;;;;;;;1.90;1.80;;;;;;;24.78;65.47;97664.97;4996781;28;20219;-27
2023/08/19 09:29:47;;;;;;;1.87;1.77;;;;;;;24.78;65.77;97666.69;4994115;28;20253;-31
2023/08/19 09:32:14;;;;;;;2.27;2.10;;;;;;;24.78;65.44;97661.56;4996322;28;20249;-27
2023/08/19 09:34:40;;;;;;;1.90;1.80;;;;;;;24.78;65.60;97667.53;4993746;28;20320;-28
2023/08/19 09:37:08;;;;;;;1.90;1.80;;;;;;;24.79;65.25;97669.28;4999183;28;20230;-28
2023/08/19 09:39:34;;;;;;;2.03;1.93;;;;;;;24.79;65.31;97665.84;4994012;28;20250;-27
2023/08/19 09:42:01;;;;;;;2.00;1.90;;;;;;;24.77;65.50;97660.69;4993627;28;20678;-27
2023/08/19 09:44:29;;;;;;;2.43;2.00;;;;;;;24.75;65.90;97659.78;4993291;28;20226;-27
2023/08/19 09:47:00;;;;;;;1.93;1.83;;;;;;;24.78;65.60;97662.41;4994119;28;20306;-27
2023/08/19 09:49:26;;;;;;;1.77;1.67;;;;;;;24.79;65.29;97658.13;4977064;28;20465;-28
2023/08/19 09:51:56;;;;;;;2.57;2.00;;;;;;;24.79;65.57;97658.13;4994926;28;20234;-27
2023/08/19 09:54:24;;;;;;;1.90;1.80;;;;;;;24.76;65.33;97647.78;4992780;28;20658;-27
2023/08/19 09:56:55;;;;;;;1.97;1.80;;;;;;;24.80;65.28;97654.72;4992446;28;20199;-30
2023/08/19 09:59:23;;;;;;;2.30;2.10;;;;;;;24.76;65.15;97651.25;4987591;28;20195;-27
2023/08/19 10:01:51;;;;;;;3.57;2.03;;;;;;;24.78;65.34;97662.41;4987461;28;20253;-27
2023/08/19 10:04:19;;;;;;;1.90;1.80;;;;;;;24.77;65.84;97663.25;4993831;28;20685;-27
2023/08/19 10:06:49;;;;;;;2.03;1.80;;;;;;;24.77;65.68;97668.38;4993097;28;20219;-27
2023/08/19 10:09:19;;;;;;;2.07;1.90;;;;;;;24.77;65.74;97672.66;4996188;28;20229;-27
2023/08/19 10:11:46;;;;;;;2.00;1.90;;;;;;;24.76;65.58;97666.66;4989734;28;20286;-27
2023/08/19 10:14:13;;;;;;;2.13;1.93;;;;;;;24.76;65.33;97663.22;4993468;28;20265;-27
2023/08/19 10:16:42;;;;;;;2.50;2.10;;;;;;;24.76;65.16;97658.97;4995125;28;20262;-27
2023/08/19 10:19:09;;;;;;;2.07;1.93;;;;;;;24.77;65.27;97659.81;4993336;28;20261;-27
2023/08/19 10:21:36;;;;;;;2.07;1.97;;;;;;;24.76;65.49;97665.78;4995131;28;20210;-27
2023/08/19 10:24:03;;;;;;;2.17;2.00;;;;;;;24.75;65.38;97667.47;4983692;28;20277;-27
2023/08/19 10:26:29;;;;;;;2.00;1.90;;;;;;;24.74;65.21;97668.34;4978580;28;20202;-32
2023/08/19 10:29:06;;;;;;;1.80;1.70;;;;;;;24.75;65.52;97662.34;4987018;28;20616;-27
2023/08/19 10:31:33;;;;;;;1.83;1.73;;;;;;;24.75;65.16;97667.47;4985151;28;20199;-27
2023/08/19 10:33:59;;;;;;;2.10;1.90;;;;;;;24.74;65.66;97663.19;4992471;28;20250;-27
2023/08/19 10:36:28;;;;;;;3.83;1.93;;;;;;;24.73;65.20;97658.91;4993953;28;20253;-27
2023/08/19 10:38:55;;;;;;;2.00;1.90;;;;;;;24.73;65.12;97656.31;4991724;28;20226;-27
2023/08/19 10:41:29;;;;;;;2.00;1.90;;;;;;;24.72;65.21;97654.56;4995142;28;20199;-27
2023/08/19 10:44:00;;;;;;;2.10;2.00;;;;;;;24.74;65.60;97659.75;4990937;28;20226;-27
2023/08/19 10:46:31;;;;;;;2.20;2.00;;;;;;;24.74;65.74;97660.63;4993083;28;20202;-27
2023/08/19 10:48:58;;;;;;;2.00;1.90;;;;;;;24.72;65.89;97657.16;4992553;28;20227;-27
2023/08/19 10:51:53;;;;;;;2.43;2.00;;;;;;;24.76;65.75;97658.06;4993469;28;20262;-27
2023/08/19 10:54:35;;;;;;;2.20;2.00;;;;;;;24.76;65.58;97655.50;4992785;28;20697;-28
2023/08/19 10:57:11;;;;;;;2.07;1.93;;;;;;;24.76;65.75;97656.38;4992677;28;20294;-27
2023/08/19 10:59:39;;;;;;;2.10;1.90;;;;;;;24.75;65.65;97652.06;4992323;28;21354;-27
2023/08/19 11:02:06;;;;;;;4.27;1.90;;;;;;;24.74;65.68;97652.91;4988694;28;20712;-27
2023/08/19 11:04:33;;;;;;;1.90;1.80;;;;;;;24.75;65.84;97649.50;4992237;28;20230;-27
2023/08/19 11:07:00;;;;;;;2.13;1.80;;;;;;;24.75;65.79;97649.50;4992833;28;20308;-27
2023/08/19 11:09:27;;;;;;;2.30;2.10;;;;;;;24.76;66.06;97653.81;4997889;28;20229;-27
2023/08/19 11:11:59;;;;;;;2.33;1.83;;;;;;;24.74;65.64;97645.19;4992809;28;20203;-27
2023/08/19 11:14:26;;;;;;;2.23;2.03;;;;;;;24.78;65.51;97646.97;4991694;28;20222;-27
2023/08/19 11:16:54;;;;;;;3.57;1.93;;;;;;;24.77;66.06;97646.94;4990674;28;20206;-27
2023/08/19 11:19:21;;;;;;;2.37;1.83;;;;;;;24.78;65.94;97646.97;4987103;28;20199;-29
2023/08/19 11:21:48;;;;;;;1.90;1.80;;;;;;;24.76;65.86;97646.09;4989873;28;20199;-27
2023/08/19 11:24:15;;;;;;;2.90;2.10;;;;;;;24.78;65.96;97646.97;4992281;28;20285;-27
2023/08/19 11:26:45;;;;;;;1.90;1.80;;;;;;;24.78;65.65;97644.41;4991945;28;20732;-27
2023/08/19 11:29:12;;;;;;;2.00;1.90;;;;;;;24.78;65.59;97646.13;4984729;28;20206;-27
2023/08/19 11:31:39;;;;;;;1.97;1.70;;;;;;;24.79;65.78;97647.84;4998205;28;20203;-27
2023/08/19 11:34:10;;;;;;;2.20;1.77;;;;;;;24.79;66.15;97653.00;4988294;28;20233;-27
2023/08/19 11:36:37;;;;;;;2.03;1.80;;;;;;;24.80;65.79;97647.88;4998067;28;20206;-28